createdAt,value
2018-04-23T00:01:33.965Z,6.93
2018-04-23T00:04:01.562Z,7.47
2018-04-23T00:06:29.144Z,6.23
2018-04-23T00:08:56.761Z,6.73
2018-04-23T00:11:24.400Z,6.23
2018-04-23T00:13:51.989Z,6.37
2018-04-23T00:16:19.583Z,6.93
2018-04-23T00:18:47.217Z,8.63
2018-04-23T00:21:14.826Z,8.20
2018-04-23T00:23:42.424Z,8.10
2018-04-23T00:26:10.043Z,7.83
2018-04-23T00:28:37.669Z,7.53
2018-04-23T00:31:05.273Z,7.77
2018-04-23T00:33:32.870Z,6.53
2018-04-23T00:36:00.532Z,8.03
2018-04-23T00:38:28.149Z,8.00
2018-04-23T00:40:55.734Z,7.50
2018-04-23T00:43:23.321Z,7.33
2018-04-23T00:45:50.912Z,7.83
2018-04-23T00:48:18.497Z,7.00
2018-04-23T00:50:46.084Z,7.83
2018-04-23T00:53:25.534Z,7.37
2018-04-23T00:55:53.163Z,7.63
2018-04-23T00:58:20.773Z,7.90
2018-04-23T01:00:48.354Z,7.50
2018-04-23T01:03:15.951Z,8.03
2018-04-23T01:05:43.593Z,7.40
2018-04-23T01:08:11.226Z,7.10
2018-04-23T01:10:38.844Z,7.30
2018-04-23T01:13:06.442Z,7.33
2018-04-23T01:15:34.109Z,6.67
2018-04-23T01:18:01.766Z,7.33
2018-04-23T01:20:29.353Z,7.63
2018-04-23T01:22:56.953Z,7.50
2018-04-23T01:25:24.539Z,7.93
2018-04-23T01:27:52.173Z,8.40
2018-04-23T01:30:19.789Z,7.93
2018-04-23T01:32:47.382Z,7.70
2018-04-23T01:35:15.109Z,7.13
2018-04-23T01:37:42.726Z,8.20
2018-04-23T01:40:10.319Z,7.70
2018-04-23T01:42:37.957Z,8.00
2018-04-23T01:45:05.537Z,7.33
2018-04-23T01:47:33.158Z,7.57
2018-04-23T01:50:00.786Z,7.23
2018-04-23T01:52:28.397Z,7.40
2018-04-23T01:54:55.986Z,7.93
2018-04-23T01:57:23.589Z,8.27
2018-04-23T01:59:51.194Z,7.60
2018-04-23T02:02:18.817Z,7.80
2018-04-23T02:04:46.409Z,8.43
2018-04-23T02:07:13.993Z,8.20
2018-04-23T02:09:41.658Z,7.97
2018-04-23T02:12:09.245Z,7.67
2018-04-23T02:14:36.882Z,8.03
2018-04-23T02:17:04.511Z,8.03
2018-04-23T02:19:32.113Z,8.00
2018-04-23T02:21:59.701Z,7.80
2018-04-23T02:24:27.321Z,7.50
2018-04-23T02:26:54.909Z,7.57
2018-04-23T02:29:22.498Z,6.63
2018-04-23T02:31:50.111Z,7.37
2018-04-23T02:34:17.725Z,6.00
2018-04-23T02:36:45.345Z,6.60
2018-04-23T02:39:12.961Z,7.40
2018-04-23T02:41:40.551Z,6.43
2018-04-23T02:44:08.157Z,5.73
2018-04-23T02:46:35.765Z,6.67
2018-04-23T02:49:03.405Z,6.43
2018-04-23T02:51:31.030Z,5.90
2018-04-23T02:53:58.654Z,5.90
2018-04-23T02:56:26.246Z,5.70
2018-04-23T02:58:53.888Z,5.80
2018-04-23T03:01:21.470Z,5.40
2018-04-23T03:03:49.049Z,5.90
2018-04-23T03:06:16.670Z,6.13
2018-04-23T03:08:44.270Z,5.93
2018-04-23T03:11:11.875Z,5.47
2018-04-23T03:13:39.518Z,6.07
2018-04-23T03:16:07.141Z,5.60
2018-04-23T03:18:34.765Z,6.23
2018-04-23T03:21:02.405Z,5.70
2018-04-23T03:23:30.022Z,6.00
2018-04-23T03:25:57.657Z,6.57
2018-04-23T03:28:25.278Z,5.90
2018-04-23T03:30:52.863Z,6.03
2018-04-23T03:33:20.473Z,6.30
2018-04-23T03:35:48.064Z,7.43
2018-04-23T03:38:15.685Z,6.47
2018-04-23T03:40:43.270Z,7.20
2018-04-23T03:43:10.949Z,6.03
2018-04-23T03:45:38.562Z,6.77
2018-04-23T03:48:06.170Z,6.57
2018-04-23T03:50:33.841Z,6.70
2018-04-23T03:53:01.403Z,6.10
2018-04-23T03:55:28.990Z,5.93
2018-04-23T03:57:56.609Z,6.53
2018-04-23T04:00:24.227Z,6.10
2018-04-23T04:02:51.837Z,6.53
2018-04-23T04:05:19.461Z,5.23
2018-04-23T04:07:47.173Z,5.80
2018-04-23T04:10:14.804Z,5.10
2018-04-23T04:12:54.074Z,5.63
2018-04-23T04:15:33.376Z,5.20
2018-04-23T04:21:09.281Z,5.10
2018-04-23T04:23:36.890Z,5.37
2018-04-23T04:26:04.484Z,4.83
2018-04-23T04:28:32.142Z,5.50
2018-04-23T04:30:59.790Z,6.33
2018-04-23T04:33:27.469Z,6.13
2018-04-23T04:35:55.069Z,5.80
2018-04-23T04:38:22.772Z,6.00
2018-04-23T04:40:50.402Z,6.03
2018-04-23T04:43:17.991Z,6.00
2018-04-23T04:45:45.626Z,6.37
2018-04-23T04:48:13.222Z,5.97
2018-04-23T04:50:40.814Z,5.23
2018-04-23T04:53:08.977Z,6.40
2018-04-23T04:55:36.593Z,6.80
2018-04-23T04:58:04.257Z,8.10
2018-04-23T05:00:31.882Z,8.67
2018-04-23T05:02:59.485Z,8.23
2018-04-23T05:05:27.294Z,8.17
2018-04-23T05:07:55.031Z,9.13
2018-04-23T05:10:22.685Z,8.77
2018-04-23T05:12:50.272Z,9.43
2018-04-23T05:15:17.923Z,9.57
2018-04-23T05:17:45.548Z,10.40
2018-04-23T05:20:13.207Z,10.33
2018-04-23T05:22:40.851Z,10.27
2018-04-23T05:25:08.529Z,12.37
2018-04-23T05:27:36.140Z,12.43
2018-04-23T05:30:03.807Z,14.03
2018-04-23T05:32:31.411Z,13.53
2018-04-23T05:34:59.018Z,13.93
2018-04-23T05:37:26.614Z,14.63
2018-04-23T05:39:54.248Z,14.87
2018-04-23T05:42:21.853Z,12.57
2018-04-23T05:44:49.457Z,11.23
2018-04-23T05:47:17.070Z,9.63
2018-04-23T05:49:44.674Z,10.80
2018-04-23T05:52:12.365Z,9.23
2018-04-23T05:54:39.963Z,9.47
2018-04-23T05:57:07.585Z,8.27
2018-04-23T05:59:35.221Z,7.23
2018-04-23T06:02:02.843Z,8.03
2018-04-23T06:04:30.485Z,7.20
2018-04-23T06:06:58.173Z,6.33
2018-04-23T06:09:25.762Z,6.90
2018-04-23T06:11:53.377Z,7.93
2018-04-23T06:14:20.995Z,6.57
2018-04-23T06:16:48.590Z,7.57
2018-04-23T06:19:16.214Z,6.13
2018-04-23T06:21:43.814Z,5.87
2018-04-23T06:24:11.409Z,6.17
2018-04-23T06:26:39.029Z,6.73
2018-04-23T06:29:06.629Z,6.13
2018-04-23T06:31:34.213Z,6.20
2018-04-23T06:34:01.945Z,6.67
2018-04-23T06:36:29.537Z,5.70
2018-04-23T06:38:57.165Z,5.37
2018-04-23T06:41:24.785Z,6.23
2018-04-23T06:43:52.402Z,5.70
2018-04-23T06:46:20.006Z,5.00
2018-04-23T06:48:47.625Z,5.43
2018-04-23T06:51:15.252Z,4.00
2018-04-23T06:53:42.848Z,10.30
2018-04-23T06:56:10.432Z,4.77
2018-04-23T06:58:38.010Z,4.23
2018-04-23T07:01:05.616Z,4.30
2018-04-23T07:03:35.036Z,4.23
2018-04-23T07:06:02.717Z,4.03
2018-04-23T07:08:30.305Z,4.20
2018-04-23T07:10:57.903Z,4.83
2018-04-23T07:13:25.565Z,5.70
2018-04-23T07:15:53.162Z,5.57
2018-04-23T07:18:20.749Z,4.10
2018-04-23T07:20:48.352Z,3.93
2018-04-23T07:23:16.001Z,4.73
2018-04-23T07:25:43.700Z,4.00
2018-04-23T07:28:11.296Z,4.00
2018-04-23T07:30:38.890Z,5.90
2018-04-23T07:33:06.507Z,4.97
2018-04-23T07:35:34.086Z,4.07
2018-04-23T07:38:01.669Z,3.67
2018-04-23T07:40:29.296Z,4.37
2018-04-23T07:42:56.882Z,4.20
2018-04-23T07:45:24.489Z,3.90
2018-04-23T07:47:52.124Z,5.10
2018-04-23T07:50:19.692Z,4.20
2018-04-23T07:52:47.368Z,3.70
2018-04-23T07:55:14.945Z,2.87
2018-04-23T07:57:42.525Z,3.13
2018-04-23T08:00:10.176Z,3.60
2018-04-23T08:02:37.771Z,2.70
2018-04-23T08:05:05.365Z,3.37
2018-04-23T08:07:32.982Z,2.83
2018-04-23T08:10:00.583Z,4.90
2018-04-23T08:12:28.181Z,3.50
2018-04-23T08:14:55.825Z,3.07
2018-04-23T08:17:23.437Z,3.20
2018-04-23T08:22:26.529Z,3.30
2018-04-23T08:24:54.131Z,3.90
2018-04-23T08:27:21.705Z,3.50
2018-04-23T08:29:49.297Z,3.20
2018-04-23T08:32:16.918Z,3.77
2018-04-23T08:34:44.501Z,3.60
2018-04-23T08:37:12.110Z,3.77
2018-04-23T08:39:39.722Z,3.77
2018-04-23T08:42:07.345Z,3.83
2018-04-23T08:44:34.948Z,3.10
2018-04-23T08:47:02.554Z,3.20
2018-04-23T08:49:30.180Z,4.30
2018-04-23T08:51:57.761Z,3.40
2018-04-23T08:54:25.346Z,2.93
2018-04-23T08:56:52.965Z,3.43
2018-04-23T08:59:20.565Z,3.10
2018-04-23T09:01:48.181Z,3.50
2018-04-23T09:04:15.787Z,3.47
2018-04-23T09:06:43.385Z,3.47
2018-04-23T09:09:10.989Z,2.90
2018-04-23T09:11:38.592Z,3.10
2018-04-23T09:14:06.213Z,3.70
2018-04-23T09:16:33.822Z,2.73
2018-04-23T09:19:01.429Z,3.63
2018-04-23T09:21:29.013Z,3.00
2018-04-23T09:23:56.633Z,3.10
2018-04-23T09:26:24.218Z,2.97
2018-04-23T09:28:51.806Z,3.23
2018-04-23T09:31:19.425Z,3.30
2018-04-23T09:33:47.018Z,3.10
2018-04-23T09:36:14.621Z,3.03
2018-04-23T09:38:42.216Z,3.00
2018-04-23T09:41:09.809Z,3.00
2018-04-23T09:43:37.401Z,2.90
2018-04-23T09:46:04.996Z,3.33
2018-04-23T09:48:32.581Z,2.87
2018-04-23T09:51:00.161Z,3.05
2018-04-23T09:53:27.762Z,3.12
2018-04-23T09:55:55.349Z,3.03
2018-04-23T09:58:22.974Z,3.65
2018-04-23T10:00:50.597Z,4.68
2018-04-23T10:03:18.320Z,3.20
2018-04-23T10:05:45.945Z,4.55
2018-04-23T10:08:13.549Z,3.85
2018-04-23T10:10:41.165Z,3.65
2018-04-23T10:13:08.761Z,3.90
2018-04-23T10:15:36.354Z,3.80
2018-04-23T10:18:03.943Z,4.57
2018-04-23T10:20:31.529Z,4.18
2018-04-23T10:22:59.129Z,4.20
2018-04-23T10:25:26.734Z,4.22
2018-04-23T10:27:54.338Z,4.40
2018-04-23T10:30:21.933Z,4.47
2018-04-23T10:32:49.549Z,4.47
2018-04-23T10:35:17.136Z,4.55
2018-04-23T10:37:44.720Z,4.72
2018-04-23T10:40:12.310Z,5.20
2018-04-23T10:42:39.961Z,5.07
2018-04-23T10:45:07.546Z,4.47
2018-04-23T10:47:35.155Z,4.32
2018-04-23T10:50:02.748Z,4.00
2018-04-23T10:52:30.341Z,4.15
2018-04-23T10:54:57.959Z,4.10
2018-04-23T10:57:25.576Z,3.35
2018-04-23T10:59:53.165Z,3.70
2018-04-23T11:02:20.761Z,4.20
2018-04-23T11:04:48.345Z,4.15
2018-04-23T11:07:15.966Z,4.12
2018-04-23T11:09:43.627Z,4.20
2018-04-23T11:12:11.224Z,4.18
2018-04-23T11:14:38.822Z,3.55
2018-04-23T11:17:06.507Z,3.60
2018-04-23T11:19:34.153Z,3.70
2018-04-23T11:22:01.737Z,3.47
2018-04-23T11:24:29.371Z,3.58
2018-04-23T11:26:56.955Z,3.00
2018-04-23T11:29:24.545Z,2.62
2018-04-23T11:31:52.209Z,2.58
2018-04-23T11:34:19.799Z,2.30
2018-04-23T11:36:47.388Z,2.60
2018-04-23T11:39:14.973Z,3.12
2018-04-23T11:41:42.561Z,4.70
2018-04-23T11:44:10.157Z,3.05
2018-04-23T11:46:37.741Z,3.00
2018-04-23T11:49:05.326Z,2.70
2018-04-23T11:51:32.905Z,2.08
2018-04-23T11:54:00.577Z,2.15
2018-04-23T11:56:28.157Z,2.28
2018-04-23T11:58:55.750Z,2.10
2018-04-23T12:01:23.377Z,2.03
2018-04-23T12:03:50.954Z,2.15
2018-04-23T12:06:18.537Z,3.22
2018-04-23T12:08:46.125Z,2.33
2018-04-23T12:11:13.701Z,2.05
2018-04-23T12:13:41.322Z,2.20
2018-04-23T12:16:08.943Z,2.22
2018-04-23T12:18:36.546Z,2.17
2018-04-23T12:21:04.173Z,2.40
2018-04-23T12:23:31.778Z,2.90
2018-04-23T12:25:59.364Z,2.25
2018-04-23T12:28:26.953Z,3.37
2018-04-23T12:30:54.529Z,2.40
2018-04-23T12:33:22.109Z,2.37
2018-04-23T12:35:49.705Z,2.70
2018-04-23T12:38:17.285Z,6.00
2018-04-23T12:40:44.865Z,3.03
2018-04-23T12:43:12.448Z,2.17
2018-04-23T12:45:40.048Z,2.30
2018-04-23T12:48:07.637Z,1.60
2018-04-23T12:50:35.213Z,1.65
2018-04-23T12:53:02.801Z,1.77
2018-04-23T12:55:30.394Z,2.00
2018-04-23T12:57:58.056Z,1.80
2018-04-23T13:00:25.645Z,1.90
2018-04-23T13:02:53.237Z,1.95
2018-04-23T13:05:20.862Z,1.85
2018-04-23T13:07:48.522Z,1.90
2018-04-23T13:10:16.138Z,2.03
2018-04-23T13:12:43.734Z,1.90
2018-04-23T13:15:11.317Z,2.12
2018-04-23T13:17:38.906Z,2.15
2018-04-23T13:20:06.635Z,2.03
2018-04-23T13:22:34.390Z,2.03
2018-04-23T13:25:02.075Z,2.15
2018-04-23T13:27:29.729Z,1.90
2018-04-23T13:29:57.445Z,1.90
2018-04-23T13:32:25.147Z,1.80
2018-04-23T13:34:52.874Z,2.10
2018-04-23T13:37:20.549Z,2.00
2018-04-23T13:39:48.157Z,2.20
2018-04-23T13:42:15.850Z,2.20
2018-04-23T13:44:43.453Z,1.93
2018-04-23T13:47:11.147Z,2.20
2018-04-23T13:49:38.778Z,1.90
2018-04-23T13:52:06.385Z,2.37
2018-04-23T13:54:33.970Z,1.80
2018-04-23T13:57:01.580Z,2.40
2018-04-23T13:59:29.225Z,2.40
2018-04-23T14:01:56.830Z,2.90
2018-04-23T14:04:24.445Z,2.27
2018-04-23T14:06:52.077Z,2.30
2018-04-23T14:09:19.686Z,2.20
2018-04-23T14:11:47.290Z,2.10
2018-04-23T14:14:14.887Z,2.00
2018-04-23T14:16:42.490Z,2.00
2018-04-23T14:19:10.113Z,2.17
2018-04-23T14:21:37.703Z,2.17
2018-04-23T14:24:05.359Z,5.17
2018-04-23T14:26:32.949Z,2.53
2018-04-23T14:29:00.611Z,2.10
2018-04-23T14:31:28.239Z,2.57
2018-04-23T14:33:55.899Z,2.63
2018-04-23T14:36:23.489Z,1.97
2018-04-23T14:38:51.078Z,1.90
2018-04-23T14:41:18.689Z,2.23
2018-04-23T14:43:46.353Z,2.30
2018-04-23T14:46:13.977Z,2.27
2018-04-23T14:48:41.566Z,2.03
2018-04-23T14:51:09.169Z,2.30
2018-04-23T14:53:36.771Z,2.47
2018-04-23T14:56:04.390Z,2.60
2018-04-23T14:58:32.008Z,3.00
2018-04-23T15:00:59.591Z,2.23
2018-04-23T15:03:27.173Z,2.17
2018-04-23T15:05:54.766Z,2.47
2018-04-23T15:08:22.375Z,2.27
2018-04-23T15:10:49.973Z,3.37
2018-04-23T15:13:17.577Z,2.20
2018-04-23T15:15:45.161Z,2.17
2018-04-23T15:18:12.742Z,2.47
2018-04-23T15:20:40.340Z,3.00
2018-04-23T15:23:07.930Z,2.80
2018-04-23T15:25:35.548Z,2.30
2018-04-23T15:28:03.149Z,2.47
2018-04-23T15:30:30.725Z,2.23
2018-04-23T15:32:58.409Z,3.13
2018-04-23T15:35:25.997Z,3.53
2018-04-23T15:37:53.610Z,2.53
2018-04-23T15:40:21.200Z,2.40
2018-04-23T15:42:48.786Z,2.67
2018-04-23T15:45:16.441Z,2.80
2018-04-23T15:47:44.037Z,2.90
2018-04-23T15:50:11.642Z,4.23
2018-04-23T15:52:39.284Z,3.17
2018-04-23T15:55:06.868Z,3.63
2018-04-23T15:57:34.460Z,4.03
2018-04-23T16:00:02.075Z,3.00
2018-04-23T16:02:29.673Z,3.20
2018-04-23T16:04:57.257Z,3.30
2018-04-23T16:07:24.850Z,2.80
2018-04-23T16:09:52.457Z,3.70
2018-04-23T16:12:20.062Z,2.70
2018-04-23T16:14:47.757Z,2.97
2018-04-23T16:17:16.177Z,2.63
2018-04-23T16:19:43.757Z,2.60
2018-04-23T16:22:11.362Z,2.90
2018-04-23T16:24:39.012Z,3.30
2018-04-23T16:27:06.589Z,2.60
2018-04-23T16:29:34.170Z,3.23
2018-04-23T16:32:01.761Z,3.57
2018-04-23T16:34:29.349Z,3.50
2018-04-23T16:36:56.985Z,2.83
2018-04-23T16:39:24.685Z,3.30
2018-04-23T16:41:52.270Z,2.80
2018-04-23T16:44:19.869Z,3.10
2018-04-23T16:46:47.489Z,3.23
2018-04-23T16:49:15.117Z,3.23
2018-04-23T16:51:42.705Z,3.10
2018-04-23T16:54:10.374Z,2.93
2018-04-23T16:56:38.926Z,3.10
2018-04-23T16:59:06.505Z,3.03
2018-04-23T17:01:34.117Z,3.40
2018-04-23T17:04:01.707Z,3.70
2018-04-23T17:06:29.305Z,3.63
2018-04-23T17:08:56.965Z,3.63
2018-04-23T17:11:24.549Z,3.60
2018-04-23T17:13:52.150Z,4.50
2018-04-23T17:16:19.779Z,4.57
2018-04-23T17:18:47.373Z,4.93
2018-04-23T17:21:15.023Z,6.13
2018-04-23T17:23:42.620Z,4.77
2018-04-23T17:26:10.222Z,4.80
2018-04-23T17:28:37.856Z,4.97
2018-04-23T17:31:05.462Z,5.00
2018-04-23T17:33:33.204Z,4.70
2018-04-23T17:36:00.843Z,4.37
2018-04-23T17:38:28.488Z,4.83
2018-04-23T17:40:56.133Z,4.90
2018-04-23T17:43:23.727Z,4.73
2018-04-23T17:45:51.332Z,4.53
2018-04-23T17:48:18.917Z,4.90
2018-04-23T17:50:46.567Z,5.23
2018-04-23T17:53:14.819Z,5.43
2018-04-23T17:55:42.553Z,3.93
2018-04-23T17:58:10.175Z,4.27
2018-04-23T18:00:37.869Z,3.60
2018-04-23T18:03:05.458Z,4.17
2018-04-23T18:05:33.110Z,4.30
2018-04-23T18:08:00.693Z,4.50
2018-04-23T18:10:28.297Z,4.60
2018-04-23T18:12:55.973Z,4.23
2018-04-23T18:15:23.566Z,4.73
2018-04-23T18:17:51.150Z,5.37
2018-04-23T18:20:18.745Z,5.00
2018-04-23T18:22:46.349Z,4.53
2018-04-23T18:25:13.962Z,4.70
2018-04-23T18:27:41.567Z,5.90
2018-04-23T18:30:09.237Z,4.70
2018-04-23T18:32:36.825Z,4.87
2018-04-23T18:35:04.443Z,4.90
2018-04-23T18:37:32.038Z,5.00
2018-04-23T18:39:59.721Z,4.90
2018-04-23T18:42:27.305Z,5.70
2018-04-23T18:44:54.948Z,4.67
2018-04-23T18:47:22.597Z,4.50
2018-04-23T18:49:50.306Z,4.20
2018-04-23T18:52:17.925Z,4.63
2018-04-23T18:54:45.557Z,4.60
2018-04-23T18:57:13.147Z,4.97
2018-04-23T18:59:40.747Z,4.33
2018-04-23T19:02:08.387Z,4.17
2018-04-23T19:04:35.993Z,4.23
2018-04-23T19:07:04.113Z,4.60
2018-04-23T19:09:31.718Z,3.97
2018-04-23T19:11:59.306Z,4.33
2018-04-23T19:14:27.020Z,4.83
2018-04-23T19:16:54.622Z,4.03
2018-04-23T19:19:22.205Z,4.43
2018-04-23T19:21:49.884Z,4.40
2018-04-23T19:24:17.502Z,4.47
2018-04-23T19:26:45.100Z,4.23
2018-04-23T19:29:12.698Z,4.67
2018-04-23T19:31:40.323Z,4.27
2018-04-23T19:34:07.928Z,4.83
2018-04-23T19:36:35.529Z,4.27
2018-04-23T19:39:03.185Z,5.17
2018-04-23T19:41:30.773Z,4.30
2018-04-23T19:43:58.389Z,4.20
2018-04-23T19:46:26.009Z,4.00
2018-04-23T19:48:53.665Z,3.60
2018-04-23T19:51:21.382Z,3.63
2018-04-23T19:53:49.049Z,3.40
2018-04-23T19:56:16.638Z,3.47
2018-04-23T19:58:44.222Z,3.77
2018-04-23T20:01:11.855Z,3.33
2018-04-23T20:03:39.441Z,4.80
2018-04-23T20:06:07.071Z,4.40
2018-04-23T20:08:34.693Z,4.07
2018-04-23T20:11:02.319Z,4.50
2018-04-23T20:13:30.060Z,3.97
2018-04-23T20:15:57.685Z,4.07
2018-04-23T20:18:25.266Z,4.17
2018-04-23T20:20:52.884Z,3.77
2018-04-23T20:23:20.585Z,4.33
2018-04-23T20:25:48.139Z,4.00
2018-04-23T20:28:15.722Z,4.37
2018-04-23T20:30:43.366Z,4.47
2018-04-23T20:33:11.077Z,4.40
2018-04-23T20:35:38.674Z,4.10
2018-04-23T20:38:07.186Z,4.30
2018-04-23T20:40:34.863Z,4.53
2018-04-23T20:43:02.487Z,5.03
2018-04-23T20:45:30.117Z,4.83
2018-04-23T20:47:57.737Z,4.60
2018-04-23T20:50:25.333Z,4.73
2018-04-23T20:52:52.934Z,4.67
2018-04-23T20:55:20.605Z,4.60
2018-04-23T20:57:48.198Z,4.97
2018-04-23T21:00:15.786Z,5.90
2018-04-23T21:02:43.374Z,4.80
2018-04-23T21:05:10.969Z,4.87
2018-04-23T21:07:38.578Z,5.03
2018-04-23T21:10:06.212Z,5.00
2018-04-23T21:12:33.796Z,4.50
2018-04-23T21:15:01.394Z,4.80
2018-04-23T21:17:28.982Z,4.40
2018-04-23T21:19:56.570Z,4.83
2018-04-23T21:22:24.253Z,5.40
2018-04-23T21:24:51.882Z,5.07
2018-04-23T21:27:19.472Z,4.77
2018-04-23T21:29:47.057Z,4.73
2018-04-23T21:32:14.657Z,4.90
2018-04-23T21:34:42.281Z,5.57
2018-04-23T21:37:09.921Z,4.83
2018-04-23T21:39:37.530Z,5.30
2018-04-23T21:42:05.153Z,4.60
2018-04-23T21:44:32.781Z,5.03
2018-04-23T21:47:00.366Z,4.77
2018-04-23T21:49:27.970Z,4.70
2018-04-23T21:51:55.565Z,4.40
2018-04-23T21:54:23.157Z,4.97
2018-04-23T21:56:50.833Z,4.50
2018-04-23T21:59:18.425Z,3.87
2018-04-23T22:01:46.021Z,4.47
2018-04-23T22:04:13.629Z,4.87
2018-04-23T22:06:41.259Z,5.23
2018-04-23T22:09:08.865Z,4.40
2018-04-23T22:11:36.493Z,4.57
2018-04-23T22:14:04.227Z,4.40
2018-04-23T22:16:31.821Z,4.27
2018-04-23T22:18:59.478Z,4.63
2018-04-23T22:21:27.069Z,5.07
2018-04-23T22:23:54.661Z,4.50
2018-04-23T22:26:22.289Z,4.83
2018-04-23T22:28:49.889Z,4.80
2018-04-23T22:31:17.489Z,4.67
2018-04-23T22:33:45.109Z,4.60
2018-04-23T22:36:12.779Z,4.70
2018-04-23T22:38:40.401Z,5.47
2018-04-23T22:41:08.045Z,4.90
2018-04-23T22:43:35.658Z,5.07
2018-04-23T22:46:03.245Z,5.10
2018-04-23T22:48:30.853Z,5.23
2018-04-23T22:50:58.437Z,4.50
2018-04-23T22:53:26.017Z,5.10
2018-04-23T22:55:53.644Z,4.73
2018-04-23T22:58:21.257Z,4.77
2018-04-23T23:00:48.881Z,4.80
2018-04-23T23:03:16.557Z,5.13
2018-04-23T23:05:44.152Z,5.17
2018-04-23T23:08:11.745Z,4.40
2018-04-23T23:10:39.326Z,4.97
2018-04-23T23:13:06.913Z,4.53
2018-04-23T23:15:34.545Z,4.97
2018-04-23T23:18:02.147Z,5.13
2018-04-23T23:20:29.733Z,4.97
2018-04-23T23:22:57.353Z,4.90
2018-04-23T23:25:24.937Z,4.90
2018-04-23T23:27:52.525Z,5.47
2018-04-23T23:30:20.193Z,5.00
2018-04-23T23:32:47.789Z,5.57
2018-04-23T23:35:15.454Z,5.40
2018-04-23T23:37:43.116Z,5.47
2018-04-23T23:40:10.661Z,4.67
2018-04-23T23:42:38.265Z,5.10
2018-04-23T23:45:05.897Z,4.30
2018-04-23T23:47:33.540Z,4.50
2018-04-23T23:50:01.128Z,4.80
2018-04-23T23:52:28.756Z,4.50
2018-04-23T23:54:56.349Z,4.80
2018-04-23T23:57:23.969Z,4.40
2018-04-23T23:59:51.553Z,4.23
